SBI4221 ULLI-UUEE
Flight info
| Callsign | SBI4221 |
|---|---|
| Flight time | 1h 26m |
| Altitude | 37000 |
| Route | SUGIN1B SUGIN T873 NIRGI T73 NAMIN NAMIN3F |
| Aircraft | A320/M-SDE3FGHIRWY/LB1 |
Departure
| Time | 2026-05-06 05:40 |
|---|---|
| Airport | Pulkovo Airport (ULLI) |
Arrival
| Time | 2026-05-06 07:06 |
|---|---|
| Airport | Sheremetyevo International Airport (UUEE) |
| Time | Latitude | Longitude | Altitude | Speed | Heading |
|---|---|---|---|---|---|
| 2026-05-06 05:15 | 59.80207 | 30.26885 | 85 ft | 0 kts | 107° |
| 2026-05-06 05:28 | 59.80215 | 30.26829 | 82 ft | 7 kts | 105° |
| 2026-05-06 05:28 | 59.80220 | 30.26795 | 86 ft | 2 kts | 129° |
| 2026-05-06 05:29 | 59.80229 | 30.26782 | 86 ft | 2 kts | 191° |
| 2026-05-06 05:29 | 59.80239 | 30.26787 | 85 ft | 2 kts | 196° |
| 2026-05-06 05:29 | 59.80242 | 30.26789 | 84 ft | 0 kts | 196° |
| 2026-05-06 05:33 | 59.80222 | 30.26700 | 81 ft | 13 kts | 258° |
| 2026-05-06 05:33 | 59.80239 | 30.26499 | 80 ft | 16 kts | 287° |
| 2026-05-06 05:33 | 59.80297 | 30.26439 | 83 ft | 11 kts | 11° |
| 2026-05-06 05:33 | 59.80365 | 30.26455 | 80 ft | 9 kts | 11° |
| 2026-05-06 05:34 | 59.80421 | 30.26490 | 80 ft | 8 kts | 33° |
| 2026-05-06 05:34 | 59.80436 | 30.26577 | 81 ft | 6 kts | 101° |
| 2026-05-06 05:34 | 59.80422 | 30.26682 | 78 ft | 10 kts | 106° |
| 2026-05-06 05:34 | 59.80404 | 30.26806 | 84 ft | 9 kts | 106° |
| 2026-05-06 05:35 | 59.80387 | 30.26919 | 81 ft | 8 kts | 107° |
| 2026-05-06 05:35 | 59.80364 | 30.27069 | 80 ft | 17 kts | 107° |
| 2026-05-06 05:35 | 59.80329 | 30.27294 | 82 ft | 16 kts | 107° |
| 2026-05-06 05:35 | 59.80299 | 30.27503 | 81 ft | 15 kts | 106° |
| 2026-05-06 05:36 | 59.80272 | 30.27684 | 84 ft | 15 kts | 107° |
| 2026-05-06 05:36 | 59.80244 | 30.27870 | 81 ft | 14 kts | 106° |
| 2026-05-06 05:36 | 59.80214 | 30.28074 | 82 ft | 21 kts | 107° |
| 2026-05-06 05:36 | 59.80167 | 30.28382 | 79 ft | 24 kts | 107° |
| 2026-05-06 05:37 | 59.80118 | 30.28713 | 71 ft | 26 kts | 107° |
| 2026-05-06 05:37 | 59.80065 | 30.29070 | 76 ft | 28 kts | 106° |
| 2026-05-06 05:37 | 59.80007 | 30.29454 | 72 ft | 30 kts | 107° |
| 2026-05-06 05:37 | 59.79946 | 30.29862 | 70 ft | 27 kts | 106° |
| 2026-05-06 05:38 | 59.79949 | 30.30047 | 68 ft | 10 kts | 51° |
| 2026-05-06 05:38 | 59.79993 | 30.30143 | 72 ft | 0 kts | 47° |
| 2026-05-06 05:38 | 59.79993 | 30.30144 | 72 ft | 0 kts | 47° |
| 2026-05-06 05:39 | 59.80033 | 30.30231 | 62 ft | 17 kts | 47° |
| 2026-05-06 05:39 | 59.80121 | 30.30226 | 66 ft | 14 kts | 297° |
| 2026-05-06 05:39 | 59.80134 | 30.30151 | 67 ft | 0 kts | 287° |
| 2026-05-06 05:39 | 59.80181 | 30.29847 | 74 ft | 63 kts | 287° |
| 2026-05-06 05:40 | 59.80371 | 30.28576 | 76 ft | 126 kts | 286° |
| 2026-05-06 05:40 | 59.80641 | 30.26606 | 288 ft | 156 kts | 285° |
| 2026-05-06 05:40 | 59.80933 | 30.24549 | 992 ft | 154 kts | 287° |
| 2026-05-06 05:40 | 59.81255 | 30.22511 | 1758 ft | 155 kts | 290° |
| 2026-05-06 05:41 | 59.81584 | 30.20454 | 2545 ft | 156 kts | 289° |
| 2026-05-06 05:41 | 59.81889 | 30.18399 | 3296 ft | 155 kts | 287° |
| 2026-05-06 05:41 | 59.82208 | 30.16229 | 3738 ft | 174 kts | 287° |
| 2026-05-06 05:41 | 59.82571 | 30.13771 | 4084 ft | 197 kts | 287° |
| 2026-05-06 05:42 | 59.82982 | 30.11000 | 4547 ft | 217 kts | 287° |
| 2026-05-06 05:42 | 59.83412 | 30.08083 | 5433 ft | 222 kts | 287° |
| 2026-05-06 05:42 | 59.83849 | 30.05104 | 6350 ft | 226 kts | 287° |
| 2026-05-06 05:42 | 59.84246 | 30.02066 | 7273 ft | 229 kts | 277° |
| 2026-05-06 05:43 | 59.83972 | 29.98963 | 8216 ft | 235 kts | 244° |
| 2026-05-06 05:43 | 59.82809 | 29.96657 | 9212 ft | 246 kts | 211° |
| 2026-05-06 05:43 | 59.81194 | 29.95544 | 10150 ft | 250 kts | 202° |
| 2026-05-06 05:43 | 59.79523 | 29.94595 | 11077 ft | 249 kts | 203° |
| 2026-05-06 05:44 | 59.77854 | 29.93677 | 12027 ft | 248 kts | 204° |
| 2026-05-06 05:44 | 59.76190 | 29.92792 | 12971 ft | 250 kts | 201° |
| 2026-05-06 05:44 | 59.74385 | 29.93007 | 13850 ft | 279 kts | 171° |
| 2026-05-06 05:44 | 59.72672 | 29.95274 | 14353 ft | 322 kts | 141° |
| 2026-05-06 05:45 | 59.71403 | 29.99239 | 14574 ft | 360 kts | 120° |
| 2026-05-06 05:45 | 59.70555 | 30.04131 | 14734 ft | 390 kts | 109° |
| 2026-05-06 05:45 | 59.69949 | 30.09524 | 14966 ft | 410 kts | 104° |
| 2026-05-06 05:45 | 59.69525 | 30.15176 | 15484 ft | 421 kts | 95° |
| 2026-05-06 05:46 | 59.69601 | 30.21009 | 16143 ft | 427 kts | 88° |
| 2026-05-06 05:46 | 59.69687 | 30.26906 | 16809 ft | 430 kts | 92° |
| 2026-05-06 05:46 | 59.69585 | 30.32840 | 17461 ft | 432 kts | 99° |
| 2026-05-06 05:46 | 59.68971 | 30.38636 | 18095 ft | 431 kts | 110° |
| 2026-05-06 05:47 | 59.68203 | 30.44406 | 18663 ft | 436 kts | 109° |
| 2026-05-06 05:47 | 59.67507 | 30.50272 | 19225 ft | 440 kts | 107° |
| 2026-05-06 05:47 | 59.66866 | 30.56216 | 19775 ft | 444 kts | 106° |
| 2026-05-06 05:47 | 59.66250 | 30.62234 | 20323 ft | 448 kts | 105° |
| 2026-05-06 05:48 | 59.65637 | 30.68305 | 20856 ft | 452 kts | 105° |
| 2026-05-06 05:48 | 59.65048 | 30.74435 | 21388 ft | 456 kts | 104° |
| 2026-05-06 05:48 | 59.64523 | 30.80640 | 21923 ft | 460 kts | 103° |
| 2026-05-06 05:48 | 59.64032 | 30.86909 | 22436 ft | 463 kts | 102° |
| 2026-05-06 05:49 | 59.63557 | 30.93137 | 22959 ft | 466 kts | 102° |
| 2026-05-06 05:49 | 59.63064 | 30.99486 | 23470 ft | 469 kts | 103° |
| 2026-05-06 05:49 | 59.62552 | 31.05867 | 23893 ft | 472 kts | 103° |
| 2026-05-06 05:49 | 59.62020 | 31.12277 | 24318 ft | 474 kts | 103° |
| 2026-05-06 05:50 | 59.61468 | 31.18718 | 24740 ft | 477 kts | 103° |
| 2026-05-06 05:50 | 59.60902 | 31.25192 | 25155 ft | 480 kts | 104° |
| 2026-05-06 05:50 | 59.60331 | 31.31699 | 25549 ft | 482 kts | 104° |
| 2026-05-06 05:50 | 59.59756 | 31.38239 | 25953 ft | 485 kts | 103° |
| 2026-05-06 05:51 | 59.59177 | 31.44807 | 26347 ft | 487 kts | 104° |
| 2026-05-06 05:51 | 59.58593 | 31.51411 | 26714 ft | 490 kts | 104° |
| 2026-05-06 05:51 | 59.58008 | 31.58039 | 27139 ft | 491 kts | 104° |
| 2026-05-06 05:51 | 59.57419 | 31.64701 | 27565 ft | 494 kts | 104° |
| 2026-05-06 05:52 | 59.56824 | 31.71388 | 27942 ft | 497 kts | 104° |
| 2026-05-06 05:52 | 59.56221 | 31.78110 | 28318 ft | 499 kts | 104° |
| 2026-05-06 05:52 | 59.55607 | 31.84869 | 28684 ft | 502 kts | 104° |
| 2026-05-06 05:52 | 59.54984 | 31.91651 | 29035 ft | 504 kts | 104° |
| 2026-05-06 05:53 | 59.54305 | 31.98436 | 29378 ft | 504 kts | 109° |
| 2026-05-06 05:53 | 59.53235 | 32.04982 | 29704 ft | 500 kts | 117° |
| 2026-05-06 05:53 | 59.51740 | 32.11122 | 30014 ft | 496 kts | 126° |
| 2026-05-06 05:53 | 59.49871 | 32.16769 | 30260 ft | 490 kts | 134° |
| 2026-05-06 05:54 | 59.47675 | 32.21840 | 30568 ft | 483 kts | 142° |
| 2026-05-06 05:54 | 59.45300 | 32.26506 | 30836 ft | 484 kts | 143° |
| 2026-05-06 05:54 | 59.42907 | 32.31171 | 31155 ft | 484 kts | 143° |
| 2026-05-06 05:54 | 59.40517 | 32.35819 | 31535 ft | 483 kts | 143° |
| 2026-05-06 05:55 | 59.38125 | 32.40456 | 31924 ft | 483 kts | 143° |
| 2026-05-06 05:55 | 59.35739 | 32.45076 | 32292 ft | 482 kts | 143° |
| 2026-05-06 05:55 | 59.33354 | 32.49688 | 32609 ft | 481 kts | 143° |
| 2026-05-06 05:55 | 59.30966 | 32.54297 | 33007 ft | 481 kts | 143° |
| 2026-05-06 05:56 | 59.28613 | 32.58824 | 33375 ft | 480 kts | 143° |
| 2026-05-06 05:56 | 59.26237 | 32.63384 | 33756 ft | 478 kts | 142° |
| 2026-05-06 05:56 | 59.23867 | 32.67930 | 34126 ft | 477 kts | 142° |
| 2026-05-06 05:56 | 59.21503 | 32.72464 | 34452 ft | 476 kts | 142° |
| 2026-05-06 05:57 | 59.19136 | 32.76989 | 34755 ft | 476 kts | 142° |
| 2026-05-06 05:57 | 59.16773 | 32.81492 | 35061 ft | 475 kts | 142° |
| 2026-05-06 05:57 | 59.14407 | 32.85990 | 35350 ft | 475 kts | 142° |
| 2026-05-06 05:57 | 59.12039 | 32.90484 | 35632 ft | 475 kts | 142° |
| 2026-05-06 05:58 | 59.09674 | 32.94961 | 35907 ft | 474 kts | 142° |
| 2026-05-06 05:58 | 59.07307 | 32.99432 | 36175 ft | 474 kts | 142° |
| 2026-05-06 05:58 | 59.04942 | 33.03892 | 36450 ft | 474 kts | 142° |
| 2026-05-06 05:58 | 59.03373 | 33.06847 | 36634 ft | 474 kts | 142° |
| 2026-05-06 05:59 | 59.01005 | 33.11303 | 36842 ft | 474 kts | 142° |
| 2026-05-06 05:59 | 58.98637 | 33.15756 | 36902 ft | 474 kts | 142° |
| 2026-05-06 05:59 | 58.93906 | 33.24636 | 36896 ft | 473 kts | 142° |
| 2026-05-06 06:00 | 58.89166 | 33.33474 | 36903 ft | 473 kts | 142° |
| 2026-05-06 06:00 | 58.84421 | 33.42271 | 36904 ft | 473 kts | 142° |
| 2026-05-06 06:01 | 58.79680 | 33.51030 | 36897 ft | 472 kts | 142° |
| 2026-05-06 06:01 | 58.74935 | 33.59767 | 36899 ft | 471 kts | 142° |
| 2026-05-06 06:02 | 58.70217 | 33.68410 | 36900 ft | 472 kts | 142° |
| 2026-05-06 06:02 | 58.65462 | 33.77100 | 36905 ft | 472 kts | 142° |
| 2026-05-06 06:03 | 58.60706 | 33.85780 | 36880 ft | 472 kts | 142° |
| 2026-05-06 06:03 | 58.55941 | 33.94413 | 36893 ft | 471 kts | 142° |
| 2026-05-06 06:04 | 58.51172 | 34.03011 | 36908 ft | 470 kts | 142° |
| 2026-05-06 06:04 | 58.46411 | 34.11579 | 36909 ft | 470 kts | 142° |
| 2026-05-06 06:05 | 58.41650 | 34.20124 | 36904 ft | 469 kts | 142° |
| 2026-05-06 06:05 | 58.36884 | 34.28624 | 36878 ft | 469 kts | 142° |
| 2026-05-06 06:06 | 58.32112 | 34.37102 | 36898 ft | 469 kts | 142° |
| 2026-05-06 06:06 | 58.27375 | 34.45499 | 36900 ft | 469 kts | 142° |
| 2026-05-06 06:07 | 58.22596 | 34.53928 | 36900 ft | 469 kts | 142° |
| 2026-05-06 06:07 | 58.17777 | 34.62233 | 36900 ft | 467 kts | 144° |
| 2026-05-06 06:08 | 58.12803 | 34.70102 | 36873 ft | 466 kts | 146° |
| 2026-05-06 06:08 | 58.07775 | 34.77824 | 36888 ft | 466 kts | 146° |
| 2026-05-06 06:09 | 58.02767 | 34.85611 | 36904 ft | 466 kts | 146° |
| 2026-05-06 06:09 | 57.97791 | 34.93451 | 36889 ft | 466 kts | 146° |
| 2026-05-06 06:10 | 57.92809 | 35.01268 | 36887 ft | 466 kts | 146° |
| 2026-05-06 06:10 | 57.87850 | 35.08991 | 36852 ft | 466 kts | 146° |
| 2026-05-06 06:11 | 57.82858 | 35.16736 | 36877 ft | 465 kts | 146° |
| 2026-05-06 06:11 | 57.77865 | 35.24456 | 36884 ft | 465 kts | 146° |
| 2026-05-06 06:12 | 57.72874 | 35.32147 | 36886 ft | 465 kts | 146° |
| 2026-05-06 06:12 | 57.67871 | 35.39799 | 36880 ft | 464 kts | 146° |
| 2026-05-06 06:13 | 57.62869 | 35.47437 | 36859 ft | 464 kts | 146° |
| 2026-05-06 06:13 | 57.57876 | 35.55045 | 36864 ft | 464 kts | 146° |
| 2026-05-06 06:14 | 57.52883 | 35.62656 | 36788 ft | 464 kts | 146° |
| 2026-05-06 06:14 | 57.50380 | 35.66469 | 36039 ft | 468 kts | 146° |
| 2026-05-06 06:14 | 57.47854 | 35.70306 | 35186 ft | 471 kts | 147° |
| 2026-05-06 06:15 | 57.45308 | 35.74162 | 34307 ft | 474 kts | 147° |
| 2026-05-06 06:15 | 57.42745 | 35.78039 | 33398 ft | 475 kts | 147° |
| 2026-05-06 06:15 | 57.40198 | 35.81889 | 32668 ft | 471 kts | 147° |
| 2026-05-06 06:15 | 57.37684 | 35.85679 | 31755 ft | 472 kts | 147° |
| 2026-05-06 06:16 | 57.35136 | 35.89513 | 30894 ft | 472 kts | 148° |
| 2026-05-06 06:16 | 57.32594 | 35.93330 | 30188 ft | 469 kts | 148° |
| 2026-05-06 06:16 | 57.30073 | 35.97114 | 29481 ft | 464 kts | 148° |
| 2026-05-06 06:16 | 57.27584 | 36.00840 | 28844 ft | 457 kts | 148° |
| 2026-05-06 06:17 | 57.25130 | 36.04511 | 28179 ft | 451 kts | 148° |
| 2026-05-06 06:17 | 57.22707 | 36.08124 | 27582 ft | 445 kts | 148° |
| 2026-05-06 06:17 | 57.20305 | 36.11691 | 26957 ft | 441 kts | 148° |
| 2026-05-06 06:17 | 57.17928 | 36.15206 | 26341 ft | 436 kts | 147° |
| 2026-05-06 06:18 | 57.15572 | 36.18688 | 25750 ft | 432 kts | 147° |
| 2026-05-06 06:18 | 57.13245 | 36.22130 | 25165 ft | 427 kts | 147° |
| 2026-05-06 06:18 | 57.10940 | 36.25539 | 24606 ft | 423 kts | 147° |
| 2026-05-06 06:18 | 57.08656 | 36.28914 | 24060 ft | 419 kts | 147° |
| 2026-05-06 06:19 | 57.06396 | 36.32240 | 23527 ft | 414 kts | 148° |
| 2026-05-06 06:19 | 57.04150 | 36.35530 | 22962 ft | 411 kts | 148° |
| 2026-05-06 06:19 | 57.01931 | 36.38772 | 22490 ft | 404 kts | 148° |
| 2026-05-06 06:19 | 56.99772 | 36.41908 | 22013 ft | 398 kts | 148° |
| 2026-05-06 06:20 | 56.97584 | 36.45069 | 21542 ft | 393 kts | 148° |
| 2026-05-06 06:20 | 56.95469 | 36.48104 | 21060 ft | 390 kts | 148° |
| 2026-05-06 06:20 | 56.93343 | 36.51144 | 20616 ft | 386 kts | 148° |
| 2026-05-06 06:20 | 56.91228 | 36.54166 | 20143 ft | 384 kts | 148° |
| 2026-05-06 06:21 | 56.89131 | 36.57166 | 19660 ft | 382 kts | 148° |
| 2026-05-06 06:21 | 56.87049 | 36.60156 | 19165 ft | 380 kts | 147° |
| 2026-05-06 06:21 | 56.84978 | 36.63153 | 18668 ft | 379 kts | 147° |
| 2026-05-06 06:21 | 56.82915 | 36.66148 | 18167 ft | 379 kts | 147° |
| 2026-05-06 06:22 | 56.80849 | 36.69140 | 17621 ft | 378 kts | 147° |
| 2026-05-06 06:22 | 56.78790 | 36.72115 | 17122 ft | 377 kts | 147° |
| 2026-05-06 06:22 | 56.76736 | 36.75071 | 16623 ft | 375 kts | 147° |
| 2026-05-06 06:22 | 56.74702 | 36.78046 | 16132 ft | 377 kts | 143° |
| 2026-05-06 06:23 | 56.72969 | 36.81659 | 15811 ft | 380 kts | 128° |
| 2026-05-06 06:23 | 56.71760 | 36.85892 | 15630 ft | 376 kts | 114° |
| 2026-05-06 06:23 | 56.71113 | 36.90496 | 15289 ft | 377 kts | 102° |
| 2026-05-06 06:23 | 56.70716 | 36.95207 | 14845 ft | 376 kts | 101° |
| 2026-05-06 06:24 | 56.70323 | 36.99906 | 14419 ft | 374 kts | 101° |
| 2026-05-06 06:24 | 56.69927 | 37.04577 | 14002 ft | 373 kts | 102° |
| 2026-05-06 06:24 | 56.69529 | 37.09218 | 13598 ft | 370 kts | 102° |
| 2026-05-06 06:24 | 56.69135 | 37.13769 | 13170 ft | 367 kts | 102° |
| 2026-05-06 06:25 | 56.68737 | 37.18343 | 12744 ft | 365 kts | 102° |
| 2026-05-06 06:25 | 56.68338 | 37.22874 | 12315 ft | 362 kts | 102° |
| 2026-05-06 06:25 | 56.67521 | 37.31817 | 11630 ft | 351 kts | 107° |
| 2026-05-06 06:26 | 56.66673 | 37.35825 | 11501 ft | 331 kts | 125° |
| 2026-05-06 06:26 | 56.65326 | 37.39071 | 11279 ft | 315 kts | 142° |
| 2026-05-06 06:26 | 56.63622 | 37.41439 | 10931 ft | 302 kts | 158° |
| 2026-05-06 06:26 | 56.61754 | 37.43014 | 10461 ft | 293 kts | 164° |
| 2026-05-06 06:27 | 56.59884 | 37.44491 | 9933 ft | 294 kts | 164° |
| 2026-05-06 06:27 | 56.58019 | 37.45970 | 9599 ft | 291 kts | 163° |
| 2026-05-06 06:27 | 56.56173 | 37.47438 | 9258 ft | 288 kts | 163° |
| 2026-05-06 06:27 | 56.54376 | 37.48865 | 9124 ft | 276 kts | 166° |
| 2026-05-06 06:28 | 56.52594 | 37.49607 | 9006 ft | 253 kts | 185° |
| 2026-05-06 06:28 | 56.50905 | 37.49269 | 8989 ft | 240 kts | 202° |
| 2026-05-06 06:28 | 56.49412 | 37.48066 | 8998 ft | 233 kts | 218° |
| 2026-05-06 06:28 | 56.48088 | 37.46383 | 8998 ft | 232 kts | 219° |
| 2026-05-06 06:29 | 56.46767 | 37.44702 | 8998 ft | 232 kts | 219° |
| 2026-05-06 06:29 | 56.45446 | 37.43027 | 8997 ft | 232 kts | 219° |
| 2026-05-06 06:29 | 56.44183 | 37.41237 | 8986 ft | 228 kts | 231° |
| 2026-05-06 06:29 | 56.43394 | 37.38876 | 8989 ft | 218 kts | 251° |
| 2026-05-06 06:30 | 56.43184 | 37.36190 | 8916 ft | 218 kts | 270° |
| 2026-05-06 06:30 | 56.43271 | 37.33443 | 8856 ft | 219 kts | 270° |
| 2026-05-06 06:30 | 56.43352 | 37.30694 | 8792 ft | 219 kts | 269° |
| 2026-05-06 06:30 | 56.43312 | 37.27967 | 8683 ft | 216 kts | 255° |
| 2026-05-06 06:31 | 56.42653 | 37.25565 | 8556 ft | 217 kts | 231° |
| 2026-05-06 06:31 | 56.41425 | 37.24029 | 8435 ft | 225 kts | 205° |
| 2026-05-06 06:31 | 56.39837 | 37.23804 | 8308 ft | 239 kts | 178° |
| 2026-05-06 06:31 | 56.38187 | 37.24393 | 8179 ft | 242 kts | 176° |
| 2026-05-06 06:32 | 56.36538 | 37.25009 | 8047 ft | 242 kts | 176° |
| 2026-05-06 06:32 | 56.34892 | 37.25625 | 7919 ft | 242 kts | 176° |
| 2026-05-06 06:32 | 56.33248 | 37.26238 | 7788 ft | 241 kts | 176° |
| 2026-05-06 06:32 | 56.31603 | 37.26846 | 7668 ft | 241 kts | 176° |
| 2026-05-06 06:33 | 56.29962 | 37.27454 | 7536 ft | 241 kts | 176° |
| 2026-05-06 06:33 | 56.28322 | 37.28059 | 7419 ft | 240 kts | 176° |
| 2026-05-06 06:33 | 56.26683 | 37.28662 | 7303 ft | 240 kts | 176° |
| 2026-05-06 06:33 | 56.25047 | 37.29270 | 7164 ft | 240 kts | 175° |
| 2026-05-06 06:34 | 56.23417 | 37.30000 | 7047 ft | 242 kts | 173° |
| 2026-05-06 06:34 | 56.21798 | 37.30805 | 6922 ft | 242 kts | 172° |
| 2026-05-06 06:34 | 56.20219 | 37.31912 | 6798 ft | 250 kts | 154° |
| 2026-05-06 06:34 | 56.18992 | 37.34202 | 6678 ft | 264 kts | 123° |
| 2026-05-06 06:35 | 56.18534 | 37.37415 | 6554 ft | 272 kts | 90° |
| 2026-05-06 06:35 | 56.18703 | 37.40824 | 6417 ft | 275 kts | 85° |
| 2026-05-06 06:35 | 56.18906 | 37.44247 | 6297 ft | 276 kts | 85° |
| 2026-05-06 06:35 | 56.19108 | 37.47667 | 6170 ft | 275 kts | 85° |
| 2026-05-06 06:36 | 56.19309 | 37.51077 | 5916 ft | 274 kts | 85° |
| 2026-05-06 06:36 | 56.19495 | 37.54475 | 5496 ft | 274 kts | 89° |
| 2026-05-06 06:36 | 56.19284 | 37.57776 | 5135 ft | 269 kts | 110° |
| 2026-05-06 06:36 | 56.18510 | 37.60745 | 4870 ft | 257 kts | 130° |
| 2026-05-06 06:37 | 56.17357 | 37.63081 | 4768 ft | 249 kts | 140° |
| 2026-05-06 06:37 | 56.16142 | 37.65290 | 4635 ft | 248 kts | 140° |
| 2026-05-06 06:37 | 56.14935 | 37.67502 | 4522 ft | 248 kts | 140° |
| 2026-05-06 06:37 | 56.13734 | 37.69710 | 4397 ft | 247 kts | 139° |
| 2026-05-06 06:38 | 56.12544 | 37.71902 | 4275 ft | 241 kts | 139° |
| 2026-05-06 06:38 | 56.11402 | 37.74008 | 4174 ft | 231 kts | 139° |
| 2026-05-06 06:38 | 56.10242 | 37.75965 | 4071 ft | 225 kts | 153° |
| 2026-05-06 06:38 | 56.08840 | 37.76943 | 3968 ft | 214 kts | 179° |
| 2026-05-06 06:39 | 56.07400 | 37.76743 | 3787 ft | 206 kts | 202° |
| 2026-05-06 06:39 | 56.06037 | 37.75960 | 3617 ft | 207 kts | 202° |
| 2026-05-06 06:39 | 56.04665 | 37.75177 | 3452 ft | 206 kts | 201° |
| 2026-05-06 06:39 | 56.03317 | 37.74408 | 3281 ft | 201 kts | 203° |
| 2026-05-06 06:40 | 56.02159 | 37.73197 | 3121 ft | 189 kts | 230° |
| 2026-05-06 06:40 | 56.01536 | 37.71220 | 2976 ft | 182 kts | 256° |
| 2026-05-06 06:40 | 56.01222 | 37.69037 | 2844 ft | 179 kts | 256° |
| 2026-05-06 06:40 | 56.00914 | 37.66937 | 2720 ft | 171 kts | 257° |
| 2026-05-06 06:41 | 56.00620 | 37.64954 | 2576 ft | 160 kts | 257° |
| 2026-05-06 06:41 | 56.00347 | 37.63130 | 2517 ft | 142 kts | 256° |
| 2026-05-06 06:41 | 56.00099 | 37.61474 | 2495 ft | 134 kts | 256° |
| 2026-05-06 06:41 | 55.99861 | 37.59870 | 2363 ft | 132 kts | 257° |
| 2026-05-06 06:42 | 55.99625 | 37.58279 | 2198 ft | 131 kts | 256° |
| 2026-05-06 06:42 | 55.99393 | 37.56705 | 2042 ft | 131 kts | 256° |
| 2026-05-06 06:42 | 55.99162 | 37.55147 | 1866 ft | 129 kts | 258° |
| 2026-05-06 06:42 | 55.98932 | 37.53588 | 1718 ft | 129 kts | 259° |
| 2026-05-06 06:43 | 55.98705 | 37.52051 | 1530 ft | 131 kts | 259° |
| 2026-05-06 06:43 | 55.98469 | 37.50460 | 1365 ft | 130 kts | 256° |
| 2026-05-06 06:43 | 55.98240 | 37.48913 | 1194 ft | 129 kts | 259° |
| 2026-05-06 06:43 | 55.98014 | 37.47389 | 1013 ft | 128 kts | 256° |
| 2026-05-06 06:44 | 55.97773 | 37.45813 | 869 ft | 132 kts | 257° |
| 2026-05-06 06:44 | 55.97550 | 37.44227 | 692 ft | 130 kts | 256° |
| 2026-05-06 06:44 | 55.97316 | 37.42663 | 736 ft | 136 kts | 256° |
| 2026-05-06 06:44 | 55.97046 | 37.40924 | 1444 ft | 151 kts | 256° |
| 2026-05-06 06:45 | 55.96771 | 37.39081 | 2279 ft | 164 kts | 257° |
| 2026-05-06 06:45 | 55.96454 | 37.36970 | 2462 ft | 190 kts | 256° |
| 2026-05-06 06:45 | 55.96046 | 37.34645 | 2499 ft | 201 kts | 245° |
| 2026-05-06 06:45 | 55.95098 | 37.32801 | 2514 ft | 208 kts | 212° |
| 2026-05-06 06:46 | 55.93745 | 37.31843 | 2507 ft | 210 kts | 204° |
| 2026-05-06 06:46 | 55.92399 | 37.30814 | 2522 ft | 210 kts | 207° |
| 2026-05-06 06:46 | 55.91083 | 37.29704 | 2724 ft | 209 kts | 208° |
| 2026-05-06 06:46 | 55.89769 | 37.28586 | 2940 ft | 209 kts | 210° |
| 2026-05-06 06:47 | 55.88461 | 37.27480 | 3000 ft | 207 kts | 209° |
| 2026-05-06 06:47 | 55.87160 | 37.26369 | 3001 ft | 206 kts | 213° |
| 2026-05-06 06:47 | 55.86185 | 37.24627 | 3001 ft | 199 kts | 245° |
| 2026-05-06 06:47 | 55.85940 | 37.22251 | 3003 ft | 198 kts | 277° |
| 2026-05-06 06:48 | 55.86395 | 37.19938 | 3012 ft | 200 kts | 292° |
| 2026-05-06 06:48 | 55.86955 | 37.17692 | 3005 ft | 200 kts | 292° |
| 2026-05-06 06:48 | 55.87527 | 37.15388 | 3014 ft | 201 kts | 292° |
| 2026-05-06 06:48 | 55.88078 | 37.13150 | 2993 ft | 200 kts | 292° |
| 2026-05-06 06:49 | 55.88638 | 37.10881 | 3007 ft | 200 kts | 292° |
| 2026-05-06 06:49 | 55.89198 | 37.08611 | 3009 ft | 200 kts | 292° |
| 2026-05-06 06:49 | 55.89755 | 37.06343 | 3016 ft | 200 kts | 292° |
| 2026-05-06 06:49 | 55.90310 | 37.04077 | 3008 ft | 200 kts | 291° |
| 2026-05-06 06:50 | 55.90870 | 37.01812 | 3011 ft | 200 kts | 295° |
| 2026-05-06 06:50 | 55.91718 | 36.99826 | 3010 ft | 204 kts | 316° |
| 2026-05-06 06:50 | 55.92887 | 36.98327 | 3224 ft | 210 kts | 321° |
| 2026-05-06 06:50 | 55.94074 | 36.96863 | 4309 ft | 206 kts | 320° |
| 2026-05-06 06:51 | 55.95249 | 36.95408 | 5255 ft | 207 kts | 318° |
| 2026-05-06 06:51 | 55.96431 | 36.93937 | 6207 ft | 208 kts | 317° |
| 2026-05-06 06:51 | 55.97633 | 36.92431 | 6790 ft | 214 kts | 317° |
| 2026-05-06 06:51 | 55.99024 | 36.91336 | 6961 ft | 228 kts | 344° |
| 2026-05-06 06:52 | 56.00637 | 36.91707 | 7012 ft | 246 kts | 19° |
| 2026-05-06 06:52 | 56.02152 | 36.93348 | 7018 ft | 264 kts | 28° |
| 2026-05-06 06:52 | 56.03710 | 36.95177 | 7018 ft | 270 kts | 28° |
| 2026-05-06 06:52 | 56.05276 | 36.97032 | 7011 ft | 271 kts | 28° |
| 2026-05-06 06:53 | 56.06826 | 36.98869 | 7011 ft | 271 kts | 28° |
| 2026-05-06 06:53 | 56.08396 | 37.00728 | 7017 ft | 271 kts | 28° |
| 2026-05-06 06:53 | 56.09970 | 37.02582 | 7023 ft | 271 kts | 28° |
| 2026-05-06 06:53 | 56.11416 | 37.04775 | 7011 ft | 277 kts | 49° |
| 2026-05-06 06:54 | 56.12315 | 37.07822 | 7015 ft | 280 kts | 74° |
| 2026-05-06 06:54 | 56.12799 | 37.11211 | 7011 ft | 280 kts | 76° |
| 2026-05-06 06:54 | 56.13279 | 37.14600 | 7014 ft | 281 kts | 76° |
| 2026-05-06 06:54 | 56.13763 | 37.17988 | 7018 ft | 281 kts | 76° |
| 2026-05-06 06:55 | 56.14247 | 37.21373 | 7008 ft | 280 kts | 76° |
| 2026-05-06 06:55 | 56.14728 | 37.24757 | 7011 ft | 280 kts | 76° |
| 2026-05-06 06:55 | 56.15208 | 37.28139 | 7013 ft | 280 kts | 76° |
| 2026-05-06 06:55 | 56.15529 | 37.30407 | 6977 ft | 274 kts | 76° |
| 2026-05-06 06:56 | 56.15981 | 37.33609 | 6832 ft | 264 kts | 76° |
| 2026-05-06 06:56 | 56.16442 | 37.36801 | 6599 ft | 259 kts | 75° |
| 2026-05-06 06:56 | 56.16908 | 37.39908 | 6335 ft | 257 kts | 75° |
| 2026-05-06 06:56 | 56.17374 | 37.42992 | 6027 ft | 256 kts | 75° |
| 2026-05-06 06:57 | 56.17836 | 37.46056 | 5755 ft | 253 kts | 75° |
| 2026-05-06 06:57 | 56.18294 | 37.49081 | 5471 ft | 250 kts | 75° |
| 2026-05-06 06:57 | 56.18747 | 37.52083 | 5198 ft | 248 kts | 75° |
| 2026-05-06 06:57 | 56.19128 | 37.55048 | 4899 ft | 247 kts | 86° |
| 2026-05-06 06:58 | 56.19033 | 37.58075 | 4629 ft | 241 kts | 107° |
| 2026-05-06 06:58 | 56.18420 | 37.60815 | 4370 ft | 233 kts | 127° |
| 2026-05-06 06:58 | 56.17411 | 37.63027 | 4123 ft | 227 kts | 139° |
| 2026-05-06 06:58 | 56.16302 | 37.65049 | 3839 ft | 227 kts | 139° |
| 2026-05-06 06:59 | 56.15200 | 37.67066 | 3556 ft | 225 kts | 138° |
| 2026-05-06 06:59 | 56.14105 | 37.69070 | 3277 ft | 225 kts | 137° |
| 2026-05-06 06:59 | 56.13013 | 37.71065 | 3011 ft | 224 kts | 136° |
| 2026-05-06 06:59 | 56.11930 | 37.73045 | 2767 ft | 221 kts | 136° |
| 2026-05-06 07:00 | 56.10860 | 37.75005 | 2532 ft | 219 kts | 136° |
| 2026-05-06 07:00 | 56.09621 | 37.76527 | 2510 ft | 216 kts | 162° |
| 2026-05-06 07:00 | 56.08167 | 37.76973 | 2517 ft | 211 kts | 188° |
| 2026-05-06 07:00 | 56.06752 | 37.76382 | 2520 ft | 209 kts | 202° |
| 2026-05-06 07:01 | 56.05356 | 37.75577 | 2519 ft | 211 kts | 201° |
| 2026-05-06 07:01 | 56.03968 | 37.74784 | 2513 ft | 209 kts | 202° |
| 2026-05-06 07:01 | 56.02625 | 37.73836 | 2502 ft | 206 kts | 218° |
| 2026-05-06 07:01 | 56.01695 | 37.71967 | 2519 ft | 203 kts | 247° |
| 2026-05-06 07:02 | 56.01298 | 37.69635 | 2509 ft | 190 kts | 257° |
| 2026-05-06 07:02 | 56.00978 | 37.67446 | 2521 ft | 174 kts | 257° |
| 2026-05-06 07:02 | 56.00685 | 37.65478 | 2539 ft | 154 kts | 257° |
| 2026-05-06 07:02 | 56.00427 | 37.63737 | 2516 ft | 138 kts | 258° |
| 2026-05-06 07:03 | 56.00188 | 37.62115 | 2504 ft | 134 kts | 256° |
| 2026-05-06 07:03 | 55.99955 | 37.60527 | 2416 ft | 132 kts | 258° |
| 2026-05-06 07:03 | 55.99722 | 37.58948 | 2281 ft | 133 kts | 257° |
| 2026-05-06 07:03 | 55.99487 | 37.57351 | 2113 ft | 133 kts | 257° |
| 2026-05-06 07:04 | 55.99253 | 37.55760 | 1941 ft | 132 kts | 257° |
| 2026-05-06 07:04 | 55.99019 | 37.54177 | 1778 ft | 132 kts | 258° |
| 2026-05-06 07:04 | 55.98785 | 37.52594 | 1605 ft | 131 kts | 257° |
| 2026-05-06 07:04 | 55.98552 | 37.51020 | 1419 ft | 132 kts | 257° |
| 2026-05-06 07:05 | 55.98318 | 37.49437 | 1246 ft | 131 kts | 257° |
| 2026-05-06 07:05 | 55.98088 | 37.47883 | 1074 ft | 132 kts | 258° |
| 2026-05-06 07:05 | 55.97854 | 37.46298 | 920 ft | 132 kts | 255° |
| 2026-05-06 07:05 | 55.97619 | 37.44724 | 725 ft | 131 kts | 255° |
| 2026-05-06 07:06 | 55.97394 | 37.43185 | 639 ft | 119 kts | 256° |
| 2026-05-06 07:06 | 55.97227 | 37.42046 | 641 ft | 70 kts | 255° |
| 2026-05-06 07:06 | 55.97121 | 37.41326 | 640 ft | 41 kts | 255° |
| 2026-05-06 07:06 | 55.97056 | 37.40887 | 646 ft | 36 kts | 255° |
| 2026-05-06 07:07 | 55.96991 | 37.40463 | 642 ft | 35 kts | 255° |
| 2026-05-06 07:07 | 55.96945 | 37.40111 | 641 ft | 19 kts | 282° |
| 2026-05-06 07:07 | 55.97051 | 37.40014 | 642 ft | 2 kts | 345° |
| 2026-05-06 07:08 | 55.97090 | 37.39996 | 645 ft | 14 kts | 345° |
| 2026-05-06 07:08 | 55.97202 | 37.39943 | 642 ft | 19 kts | 345° |
| 2026-05-06 07:08 | 55.97278 | 37.39907 | 638 ft | 0 kts | 345° |
| 2026-05-06 07:09 | 55.97321 | 37.39898 | 644 ft | 14 kts | 12° |
| 2026-05-06 07:10 | 55.97364 | 37.40053 | 641 ft | 15 kts | 75° |
| 2026-05-06 07:10 | 55.97407 | 37.40333 | 644 ft | 30 kts | 75° |
| 2026-05-06 07:10 | 55.97462 | 37.40703 | 643 ft | 32 kts | 75° |
| 2026-05-06 07:10 | 55.97521 | 37.41097 | 643 ft | 33 kts | 75° |
| 2026-05-06 07:11 | 55.97580 | 37.41487 | 641 ft | 34 kts | 75° |
| 2026-05-06 07:11 | 55.97642 | 37.41905 | 641 ft | 36 kts | 75° |
| 2026-05-06 07:11 | 55.97704 | 37.42124 | 639 ft | 14 kts | 5° |
| 2026-05-06 07:11 | 55.97763 | 37.42008 | 647 ft | 15 kts | 298° |
| 2026-05-06 07:12 | 55.97806 | 37.41893 | 644 ft | 5 kts | 303° |
| 2026-05-06 07:12 | 55.97807 | 37.41889 | 643 ft | 0 kts | 302° |